Norwegian Epic — C6XP7 — position and weather

sailwx.info

Track history (hours):
 
Tides and Currents Weather Stations Pressure Air Temp Water Temp Dewpoint Dewpoint Depression Visibility Wind Speed Wind Dir Waves Ship Positions

Norwegian Epic

Last reported at 2017-Sep-26 11:30 UTC. Time now 2017-Sep-26 14:54 UTC.
Position N 40°50' E 014°16'.

Length 329 m; draft 9 m.

MMSI: 311018500.

Date/timePositionNaut miles runAvg speedWind from/ knotsBaromVisibWave heightAir tempDewpointWater temp
2017-Sep-26 11:30N 40°50' E 014°16'0 0.0
2017-Sep-26 10:43N 40°50' E 014°16'0 0.0
2017-Sep-26 10:19N 40°50' E 014°16'0 0.0
2017-Sep-26 09:55N 40°50' E 014°16'0 0.0
2017-Sep-26 09:26N 40°50' E 014°16'0 0.0
2017-Sep-26 08:50N 40°50' E 014°16'0 0.0
2017-Sep-26 08:26N 40°50' E 014°16'0 0.0
2017-Sep-26 07:51N 40°50' E 014°16'0 0.0
2017-Sep-26 07:27N 40°50' E 014°16'0 0.0
2017-Sep-26 06:57N 40°50' E 014°16'0 0.0
2017-Sep-26 06:22N 40°50' E 014°16'0 0.0
2017-Sep-26 05:58N 40°50' E 014°16'33413.3
2017-Sep-25 04:48N 41°17' E 006°54'618.5
2017-Sep-25 04:30N 41°17' E 006°47'918.5
2017-Sep-25 04:00N 41°17' E 006°34'1018.5
2017-Sep-25 03:26N 41°17' E 006°20'818.4
2017-Sep-25 03:00N 41°16' E 006°10'1018.5
2017-Sep-25 02:29N 41°16' E 005°57'918.3
2017-Sep-25 01:59N 41°16' E 005°45'918.0
2017-Sep-25 01:31N 41°16' E 005°33'918.2
2017-Sep-25 01:00N 41°15' E 005°21'918.8
2017-Sep-25 00:30N 41°14' E 005°09'1118.6
2017-Sep-24 23:55N 41°12' E 004°55'2317.9
2017-Sep-24 22:39N 41°16' E 004°25'318.1
2017-Sep-24 22:27N 41°16' E 004°20'818.0
2017-Sep-24 22:00N 41°16' E 004°09'917.7
2017-Sep-24 21:28N 41°16' E 003°57'817.8
2017-Sep-24 21:00N 41°16' E 003°46'917.5
2017-Sep-24 20:30N 41°16' E 003°34'917.3
2017-Sep-24 20:00N 41°16' E 003°23'917.4
2017-Sep-24 19:30N 41°16' E 003°11'917.5
2017-Sep-24 19:00N 41°16' E 002°59'917.5
2017-Sep-24 18:30N 41°16' E 002°48'917.3
2017-Sep-24 18:00N 41°15' E 002°36'917.3
2017-Sep-24 17:30N 41°14' E 002°25'816.8
2017-Sep-24 17:00N 41°14' E 002°14'713.8
2017-Sep-24 16:30N 41°20' E 002°10'2 0.3
2017-Sep-24 10:34N 41°22' E 002°11'0 0.0
2017-Sep-24 10:16N 41°22' E 002°11'0 0.0
2017-Sep-24 09:58N 41°22' E 002°11'3 0.3
2017-Sep-24 02:06N 41°19' E 002°10'1 9.0
2017-Sep-24 02:00N 41°18' E 002°11'713.1
2017-Sep-24 01:30N 41°12' E 002°11'4116.5
2017-Sep-23 23:00N 40°30' E 002°11'816.6
2017-Sep-23 22:30N 40°22' E 002°12'816.9
2017-Sep-23 22:00N 40°14' E 002°12'817.1
2017-Sep-23 21:30N 40°05' E 002°12'816.9
2017-Sep-23 21:00N 39°57' E 002°12'816.9
2017-Sep-23 20:31N 39°48' E 002°13'917.5
2017-Sep-23 20:01N 39°40' E 002°13'334 8.0
2017-Sep-22 02:00N 43°29' E 007°39'712.7
2017-Sep-22 01:27N 43°29' E 007°49'812.2
2017-Sep-22 00:46N 43°29' E 008°00'512.2
2017-Sep-22 00:21N 43°29' E 008°07'512.1
2017-Sep-21 23:55N 43°29' E 008°14'512.1
2017-Sep-21 23:30N 43°30' E 008°21'612.0
2017-Sep-21 23:00N 43°30' E 008°30'612.0
2017-Sep-21 22:30N 43°30' E 008°38'612.2
2017-Sep-21 22:00N 43°30' E 008°46'612.6
2017-Sep-21 21:30N 43°30' E 008°55'612.4
2017-Sep-21 21:00N 43°31' E 009°04'612.5
2017-Sep-21 20:30N 43°31' E 009°12'612.9
2017-Sep-21 20:00N 43°31' E 009°21'612.9
2017-Sep-21 19:30N 43°31' E 009°30'815.7
2017-Sep-21 19:00N 43°31' E 009°41'917.2
2017-Sep-21 18:30N 43°32' E 009°53'816.9
2017-Sep-21 18:00N 43°30' E 010°04'815.7
2017-Sep-21 17:30N 43°32' E 010°15'3 4.9
2017-Sep-21 16:59N 43°33' E 010°18'0 0.0
2017-Sep-21 16:27N 43°33' E 010°18'0 0.0
2017-Sep-21 16:00N 43°33' E 010°18'0 0.0
2017-Sep-21 15:30N 43°33' E 010°18'0 0.0
2017-Sep-21 14:52N 43°33' E 010°18'0 0.0
2017-Sep-21 14:28N 43°33' E 010°18'0 0.0
2017-Sep-21 13:58N 43°33' E 010°18'0 0.0
2017-Sep-21 13:29N 43°33' E 010°18'0 0.0
2017-Sep-21 12:56N 43°33' E 010°18'0 0.0
2017-Sep-21 12:29N 43°33' E 010°18'0 0.0
2017-Sep-21 12:00N 43°33' E 010°18'0 0.0
2017-Sep-21 11:30N 43°33' E 010°18'0 0.0
2017-Sep-21 11:00N 43°33' E 010°18'0 0.0
2017-Sep-21 10:25N 43°33' E 010°18'0 0.0
2017-Sep-21 09:58N 43°33' E 010°18'0 0.0
2017-Sep-21 09:28N 43°33' E 010°18'0 0.0
2017-Sep-21 08:53N 43°33' E 010°18'0 0.0
2017-Sep-21 08:26N 43°33' E 010°18'0 0.0
2017-Sep-21 07:59N 43°33' E 010°18'0 0.0
2017-Sep-21 07:30N 43°33' E 010°18'0 0.0
2017-Sep-21 07:00N 43°33' E 010°18'0 0.0
2017-Sep-21 06:27N 43°33' E 010°18'0 0.0
2017-Sep-21 05:58N 43°33' E 010°18'0 0.0
2017-Sep-21 05:28N 43°33' E 010°18'0 0.0
2017-Sep-21 05:00N 43°33' E 010°18'1 1.2
2017-Sep-21 04:31N 43°33' E 010°17'3 6.3
2017-Sep-21 04:01N 43°30' E 010°14'5 9.6
2017-Sep-21 03:31N 43°26' E 010°12'612.4
2017-Sep-21 03:00N 43°20' E 010°10'612.6
2017-Sep-21 02:30N 43°14' E 010°08'816.0
2017-Sep-21 02:01N 43°06' E 010°05'816.0
2017-Sep-21 01:31N 42°58' E 010°02'815.8
2017-Sep-21 00:59N 42°50' E 009°59'816.2
2017-Sep-21 00:28N 42°42' E 009°56'1316.0
2017-Sep-20 23:41N 42°30' E 009°54'916.2
2017-Sep-20 23:07N 42°21' E 009°56'1715.4
2017-Sep-20 22:00N 42°11' E 010°15'179 6.7
2017-Sep-19 19:19N 40°39' E 013°39'818.7
2017-Sep-19 18:54N 40°39' E 013°49'717.3
2017-Sep-19 18:30N 40°39' E 013°58'714.5
2017-Sep-19 18:00N 40°41' E 014°07'815.9
2017-Sep-19 17:30N 40°47' E 014°15'49810.9
2017-Sep-17 19:41N 41°16' E 003°16'517.7
2017-Sep-17 19:24N 41°16' E 003°10'817.6
2017-Sep-17 18:58N 41°16' E 002°60'917.4
2017-Sep-17 18:26N 41°16' E 002°47'817.7
2017-Sep-17 17:59N 41°15' E 002°37'817.6
2017-Sep-17 17:30N 41°16' E 002°25'917.8
2017-Sep-17 17:00N 41°15' E 002°14'6 0.4
2017-Sep-17 02:22N 41°21' E 002°10'3 7.3
2017-Sep-17 02:01N 41°18' E 002°11'713.5
2017-Sep-17 01:30N 41°11' E 002°11'815.8
2017-Sep-17 01:00N 41°03' E 002°12'815.6
2017-Sep-17 00:30N 40°56' E 002°12'815.9
2017-Sep-17 00:00N 40°48' E 002°12'816.0
2017-Sep-16 23:30N 40°40' E 002°12'816.4
2017-Sep-16 23:00N 40°32' E 002°12'816.8
2017-Sep-16 22:30N 40°23' E 002°12'816.9
2017-Sep-16 22:00N 40°15' E 002°12'917.1
2017-Sep-16 21:30N 40°06' E 002°12'918.4
2017-Sep-16 21:00N 39°57' E 002°12'918.5
2017-Sep-16 20:30N 39°48' E 002°13'918.8
2017-Sep-16 20:00N 39°38' E 002°13'917.1
2017-Sep-16 19:30N 39°31' E 002°18'917.9
2017-Sep-16 19:00N 39°25' E 002°27'715.0
2017-Sep-16 18:31N 39°28' E 002°36'611.2
2017-Sep-16 18:00N 39°33' E 002°38'0 0.2
2017-Sep-16 17:30N 39°33' E 002°38'0 0.0
2017-Sep-16 17:00N 39°33' E 002°38'0 0.0
2017-Sep-16 16:28N 39°33' E 002°38'0 0.0
2017-Sep-16 15:58N 39°33' E 002°38'0 0.0
2017-Sep-16 15:28N 39°33' E 002°38'0 0.0
2017-Sep-16 14:59N 39°33' E 002°38'0 0.0
2017-Sep-16 14:29N 39°33' E 002°38'0 0.0
2017-Sep-16 13:59N 39°33' E 002°38'0 0.0
2017-Sep-16 13:30N 39°33' E 002°38'0 0.0
2017-Sep-16 13:00N 39°33' E 002°38'0 0.0
2017-Sep-16 12:30N 39°33' E 002°38'0 0.0
2017-Sep-16 12:00N 39°33' E 002°38'0 0.0
2017-Sep-16 11:30N 39°33' E 002°38'  
Track history (hours):
 
Tides and Currents Weather Stations Pressure Air Temp Water Temp Dewpoint Dewpoint Depression Visibility Wind Speed Wind Dir Waves Ship Positions

Norwegian Epic

Last reported at 2017-Sep-26 11:30 UTC. Time now 2017-Sep-26 14:54 UTC.
Position N 40°50' E 014°16'.

Length 329 m; draft 9 m.

MMSI: 311018500.

Date/timePositionNaut miles runAvg speedWind from/ knotsBaromVisibWave heightAir tempDewpointWater temp
2017-Sep-26 11:30N 40°50' E 014°16'0 0.0
2017-Sep-26 10:43N 40°50' E 014°16'0 0.0
2017-Sep-26 10:19N 40°50' E 014°16'0 0.0
2017-Sep-26 09:55N 40°50' E 014°16'0 0.0
2017-Sep-26 09:26N 40°50' E 014°16'0 0.0
2017-Sep-26 08:50N 40°50' E 014°16'0 0.0
2017-Sep-26 08:26N 40°50' E 014°16'0 0.0
2017-Sep-26 07:51N 40°50' E 014°16'0 0.0
2017-Sep-26 07:27N 40°50' E 014°16'0 0.0
2017-Sep-26 06:57N 40°50' E 014°16'0 0.0
2017-Sep-26 06:22N 40°50' E 014°16'0 0.0
2017-Sep-26 05:58N 40°50' E 014°16'33413.3
2017-Sep-25 04:48N 41°17' E 006°54'618.5
2017-Sep-25 04:30N 41°17' E 006°47'918.5
2017-Sep-25 04:00N 41°17' E 006°34'1018.5
2017-Sep-25 03:26N 41°17' E 006°20'818.4
2017-Sep-25 03:00N 41°16' E 006°10'1018.5
2017-Sep-25 02:29N 41°16' E 005°57'918.3
2017-Sep-25 01:59N 41°16' E 005°45'918.0
2017-Sep-25 01:31N 41°16' E 005°33'918.2
2017-Sep-25 01:00N 41°15' E 005°21'918.8
2017-Sep-25 00:30N 41°14' E 005°09'1118.6
2017-Sep-24 23:55N 41°12' E 004°55'2317.9
2017-Sep-24 22:39N 41°16' E 004°25'318.1
2017-Sep-24 22:27N 41°16' E 004°20'818.0
2017-Sep-24 22:00N 41°16' E 004°09'917.7
2017-Sep-24 21:28N 41°16' E 003°57'817.8
2017-Sep-24 21:00N 41°16' E 003°46'917.5
2017-Sep-24 20:30N 41°16' E 003°34'917.3
2017-Sep-24 20:00N 41°16' E 003°23'917.4
2017-Sep-24 19:30N 41°16' E 003°11'917.5
2017-Sep-24 19:00N 41°16' E 002°59'917.5
2017-Sep-24 18:30N 41°16' E 002°48'917.3
2017-Sep-24 18:00N 41°15' E 002°36'917.3
2017-Sep-24 17:30N 41°14' E 002°25'816.8
2017-Sep-24 17:00N 41°14' E 002°14'713.8
2017-Sep-24 16:30N 41°20' E 002°10'2 0.3
2017-Sep-24 10:34N 41°22' E 002°11'0 0.0
2017-Sep-24 10:16N 41°22' E 002°11'0 0.0
2017-Sep-24 09:58N 41°22' E 002°11'3 0.3
2017-Sep-24 02:06N 41°19' E 002°10'1 9.0
2017-Sep-24 02:00N 41°18' E 002°11'713.1
2017-Sep-24 01:30N 41°12' E 002°11'4116.5
2017-Sep-23 23:00N 40°30' E 002°11'816.6
2017-Sep-23 22:30N 40°22' E 002°12'816.9
2017-Sep-23 22:00N 40°14' E 002°12'817.1
2017-Sep-23 21:30N 40°05' E 002°12'816.9
2017-Sep-23 21:00N 39°57' E 002°12'816.9
2017-Sep-23 20:31N 39°48' E 002°13'917.5
2017-Sep-23 20:01N 39°40' E 002°13'334 8.0
2017-Sep-22 02:00N 43°29' E 007°39'712.7
2017-Sep-22 01:27N 43°29' E 007°49'812.2
2017-Sep-22 00:46N 43°29' E 008°00'512.2
2017-Sep-22 00:21N 43°29' E 008°07'512.1
2017-Sep-21 23:55N 43°29' E 008°14'512.1
2017-Sep-21 23:30N 43°30' E 008°21'612.0
2017-Sep-21 23:00N 43°30' E 008°30'612.0
2017-Sep-21 22:30N 43°30' E 008°38'612.2
2017-Sep-21 22:00N 43°30' E 008°46'612.6
2017-Sep-21 21:30N 43°30' E 008°55'612.4
2017-Sep-21 21:00N 43°31' E 009°04'612.5
2017-Sep-21 20:30N 43°31' E 009°12'612.9
2017-Sep-21 20:00N 43°31' E 009°21'612.9
2017-Sep-21 19:30N 43°31' E 009°30'815.7
2017-Sep-21 19:00N 43°31' E 009°41'917.2
2017-Sep-21 18:30N 43°32' E 009°53'816.9
2017-Sep-21 18:00N 43°30' E 010°04'815.7
2017-Sep-21 17:30N 43°32' E 010°15'3 4.9
2017-Sep-21 16:59N 43°33' E 010°18'0 0.0
2017-Sep-21 16:27N 43°33' E 010°18'0 0.0
2017-Sep-21 16:00N 43°33' E 010°18'0 0.0
2017-Sep-21 15:30N 43°33' E 010°18'0 0.0
2017-Sep-21 14:52N 43°33' E 010°18'0 0.0
2017-Sep-21 14:28N 43°33' E 010°18'0 0.0
2017-Sep-21 13:58N 43°33' E 010°18'0 0.0
2017-Sep-21 13:29N 43°33' E 010°18'0 0.0
2017-Sep-21 12:56N 43°33' E 010°18'0 0.0
2017-Sep-21 12:29N 43°33' E 010°18'0 0.0
2017-Sep-21 12:00N 43°33' E 010°18'0 0.0
2017-Sep-21 11:30N 43°33' E 010°18'0 0.0
2017-Sep-21 11:00N 43°33' E 010°18'0 0.0
2017-Sep-21 10:25N 43°33' E 010°18'0 0.0
2017-Sep-21 09:58N 43°33' E 010°18'0 0.0
2017-Sep-21 09:28N 43°33' E 010°18'0 0.0
2017-Sep-21 08:53N 43°33' E 010°18'0 0.0
2017-Sep-21 08:26N 43°33' E 010°18'0 0.0
2017-Sep-21 07:59N 43°33' E 010°18'0 0.0
2017-Sep-21 07:30N 43°33' E 010°18'0 0.0
2017-Sep-21 07:00N 43°33' E 010°18'0 0.0
2017-Sep-21 06:27N 43°33' E 010°18'0 0.0
2017-Sep-21 05:58N 43°33' E 010°18'0 0.0
2017-Sep-21 05:28N 43°33' E 010°18'0 0.0
2017-Sep-21 05:00N 43°33' E 010°18'1 1.2
2017-Sep-21 04:31N 43°33' E 010°17'3 6.3
2017-Sep-21 04:01N 43°30' E 010°14'5 9.6
2017-Sep-21 03:31N 43°26' E 010°12'612.4
2017-Sep-21 03:00N 43°20' E 010°10'612.6
2017-Sep-21 02:30N 43°14' E 010°08'816.0
2017-Sep-21 02:01N 43°06' E 010°05'816.0
2017-Sep-21 01:31N 42°58' E 010°02'815.8
2017-Sep-21 00:59N 42°50' E 009°59'816.2
2017-Sep-21 00:28N 42°42' E 009°56'1316.0
2017-Sep-20 23:41N 42°30' E 009°54'916.2
2017-Sep-20 23:07N 42°21' E 009°56'1715.4
2017-Sep-20 22:00N 42°11' E 010°15'179 6.7
2017-Sep-19 19:19N 40°39' E 013°39'818.7
2017-Sep-19 18:54N 40°39' E 013°49'717.3
2017-Sep-19 18:30N 40°39' E 013°58'714.5
2017-Sep-19 18:00N 40°41' E 014°07'815.9
2017-Sep-19 17:30N 40°47' E 014°15'49810.9
2017-Sep-17 19:41N 41°16' E 003°16'517.7
2017-Sep-17 19:24N 41°16' E 003°10'817.6
2017-Sep-17 18:58N 41°16' E 002°60'917.4
2017-Sep-17 18:26N 41°16' E 002°47'817.7
2017-Sep-17 17:59N 41°15' E 002°37'817.6
2017-Sep-17 17:30N 41°16' E 002°25'917.8
2017-Sep-17 17:00N 41°15' E 002°14'6 0.4
2017-Sep-17 02:22N 41°21' E 002°10'3 7.3
2017-Sep-17 02:01N 41°18' E 002°11'713.5
2017-Sep-17 01:30N 41°11' E 002°11'815.8
2017-Sep-17 01:00N 41°03' E 002°12'815.6
2017-Sep-17 00:30N 40°56' E 002°12'815.9
2017-Sep-17 00:00N 40°48' E 002°12'816.0
2017-Sep-16 23:30N 40°40' E 002°12'816.4
2017-Sep-16 23:00N 40°32' E 002°12'816.8
2017-Sep-16 22:30N 40°23' E 002°12'816.9
2017-Sep-16 22:00N 40°15' E 002°12'917.1
2017-Sep-16 21:30N 40°06' E 002°12'918.4
2017-Sep-16 21:00N 39°57' E 002°12'918.5
2017-Sep-16 20:30N 39°48' E 002°13'918.8
2017-Sep-16 20:00N 39°38' E 002°13'917.1
2017-Sep-16 19:30N 39°31' E 002°18'917.9
2017-Sep-16 19:00N 39°25' E 002°27'715.0
2017-Sep-16 18:31N 39°28' E 002°36'611.2
2017-Sep-16 18:00N 39°33' E 002°38'0 0.2
2017-Sep-16 17:30N 39°33' E 002°38'0 0.0
2017-Sep-16 17:00N 39°33' E 002°38'0 0.0
2017-Sep-16 16:28N 39°33' E 002°38'0 0.0
2017-Sep-16 15:58N 39°33' E 002°38'0 0.0
2017-Sep-16 15:28N 39°33' E 002°38'0 0.0
2017-Sep-16 14:59N 39°33' E 002°38'0 0.0
2017-Sep-16 14:29N 39°33' E 002°38'0 0.0
2017-Sep-16 13:59N 39°33' E 002°38'0 0.0
2017-Sep-16 13:30N 39°33' E 002°38'0 0.0
2017-Sep-16 13:00N 39°33' E 002°38'0 0.0
2017-Sep-16 12:30N 39°33' E 002°38'0 0.0
2017-Sep-16 12:00N 39°33' E 002°38'0 0.0
2017-Sep-16 11:30N 39°33' E 002°38'  

Dump ship's entire track history